sensor_id;sensor_type;location;lat;lon;timestamp;temperature;humidity
34837;DHT22;21053;50.848;4.652;2023-07-13T00:02:10;15.50;99.90
34837;DHT22;21053;50.848;4.652;2023-07-13T00:04:36;15.50;99.90
34837;DHT22;21053;50.848;4.652;2023-07-13T00:07:02;15.40;99.90
34837;DHT22;21053;50.848;4.652;2023-07-13T00:09:29;15.40;99.90
34837;DHT22;21053;50.848;4.652;2023-07-13T00:11:57;15.30;99.90
34837;DHT22;21053;50.848;4.652;2023-07-13T00:14:26;15.30;99.90
34837;DHT22;21053;50.848;4.652;2023-07-13T00:16:55;15.30;99.90
34837;DHT22;21053;50.848;4.652;2023-07-13T00:19:21;15.30;99.90
34837;DHT22;21053;50.848;4.652;2023-07-13T00:21:48;15.30;99.90
34837;DHT22;21053;50.848;4.652;2023-07-13T00:24:17;15.20;99.90
34837;DHT22;21053;50.848;4.652;2023-07-13T00:26:48;15.30;99.90
34837;DHT22;21053;50.848;4.652;2023-07-13T00:29:14;15.20;99.90
34837;DHT22;21053;50.848;4.652;2023-07-13T00:31:43;15.20;99.90
34837;DHT22;21053;50.848;4.652;2023-07-13T00:34:11;15.10;99.90
34837;DHT22;21053;50.848;4.652;2023-07-13T00:36:39;15.10;99.90
34837;DHT22;21053;50.848;4.652;2023-07-13T00:39:06;15.10;99.90
34837;DHT22;21053;50.848;4.652;2023-07-13T00:41:35;15.10;99.90
34837;DHT22;21053;50.848;4.652;2023-07-13T00:44:02;15.10;99.90
34837;DHT22;21053;50.848;4.652;2023-07-13T00:46:31;15.10;99.90
34837;DHT22;21053;50.848;4.652;2023-07-13T00:49:02;15.10;99.90
34837;DHT22;21053;50.848;4.652;2023-07-13T00:51:50;15.20;99.90
34837;DHT22;21053;50.848;4.652;2023-07-13T00:54:29;15.20;99.90
34837;DHT22;21053;50.848;4.652;2023-07-13T00:57:00;15.00;99.90
34837;DHT22;21053;50.848;4.652;2023-07-13T00:59:28;15.10;99.90
34837;DHT22;21053;50.848;4.652;2023-07-13T01:01:55;15.10;99.90
34837;DHT22;21053;50.848;4.652;2023-07-13T01:04:25;15.00;99.90
34837;DHT22;21053;50.848;4.652;2023-07-13T01:06:51;14.90;99.90
34837;DHT22;21053;50.848;4.652;2023-07-13T01:09:20;14.90;99.90
34837;DHT22;21053;50.848;4.652;2023-07-13T01:11:47;14.90;99.90
34837;DHT22;21053;50.848;4.652;2023-07-13T01:14:13;14.90;99.90
34837;DHT22;21053;50.848;4.652;2023-07-13T01:16:47;15.00;99.90
34837;DHT22;21053;50.848;4.652;2023-07-13T01:19:32;15.00;99.90
34837;DHT22;21053;50.848;4.652;2023-07-13T01:22:06;15.00;99.90
34837;DHT22;21053;50.848;4.652;2023-07-13T01:24:35;15.00;99.90
34837;DHT22;21053;50.848;4.652;2023-07-13T01:27:03;14.90;99.90
34837;DHT22;21053;50.848;4.652;2023-07-13T01:29:36;14.90;99.90
34837;DHT22;21053;50.848;4.652;2023-07-13T01:32:10;15.00;99.90
34837;DHT22;21053;50.848;4.652;2023-07-13T01:34:38;14.90;99.90
34837;DHT22;21053;50.848;4.652;2023-07-13T01:37:11;14.90;99.90
34837;DHT22;21053;50.848;4.652;2023-07-13T01:39:40;14.90;99.90
34837;DHT22;21053;50.848;4.652;2023-07-13T01:42:08;14.90;99.90
34837;DHT22;21053;50.848;4.652;2023-07-13T01:44:34;14.80;99.90
34837;DHT22;21053;50.848;4.652;2023-07-13T01:47:00;14.90;99.90
34837;DHT22;21053;50.848;4.652;2023-07-13T01:49:27;14.80;99.90
34837;DHT22;21053;50.848;4.652;2023-07-13T01:51:55;14.80;99.90
34837;DHT22;21053;50.848;4.652;2023-07-13T01:54:21;14.70;99.90
34837;DHT22;21053;50.848;4.652;2023-07-13T01:56:46;14.70;99.90
34837;DHT22;21053;50.848;4.652;2023-07-13T01:59:12;14.70;99.90
34837;DHT22;21053;50.848;4.652;2023-07-13T02:01:39;14.60;99.90
34837;DHT22;21053;50.848;4.652;2023-07-13T02:04:06;14.60;99.90
34837;DHT22;21053;50.848;4.652;2023-07-13T02:06:33;14.60;99.90
34837;DHT22;21053;50.848;4.652;2023-07-13T02:09:01;14.50;99.90
34837;DHT22;21053;50.848;4.652;2023-07-13T02:11:28;14.40;99.90
34837;DHT22;21053;50.848;4.652;2023-07-13T02:13:59;14.40;99.90
34837;DHT22;21053;50.848;4.652;2023-07-13T02:16:27;14.50;99.90
34837;DHT22;21053;50.848;4.652;2023-07-13T02:18:59;14.40;99.90
34837;DHT22;21053;50.848;4.652;2023-07-13T02:21:28;14.40;99.90
34837;DHT22;21053;50.848;4.652;2023-07-13T02:23:57;14.40;99.90
34837;DHT22;21053;50.848;4.652;2023-07-13T02:26:24;14.50;99.90
34837;DHT22;21053;50.848;4.652;2023-07-13T02:28:52;14.30;99.90
34837;DHT22;21053;50.848;4.652;2023-07-13T02:31:19;14.30;99.90
34837;DHT22;21053;50.848;4.652;2023-07-13T02:33:46;14.30;99.90
34837;DHT22;21053;50.848;4.652;2023-07-13T02:36:14;14.30;99.90
34837;DHT22;21053;50.848;4.652;2023-07-13T02:38:43;14.30;99.90
34837;DHT22;21053;50.848;4.652;2023-07-13T02:41:12;14.30;99.90
34837;DHT22;21053;50.848;4.652;2023-07-13T02:43:39;14.20;99.90
34837;DHT22;21053;50.848;4.652;2023-07-13T02:46:06;14.20;99.90
34837;DHT22;21053;50.848;4.652;2023-07-13T02:48:36;14.10;99.90
34837;DHT22;21053;50.848;4.652;2023-07-13T02:51:03;14.10;99.90
34837;DHT22;21053;50.848;4.652;2023-07-13T02:53:30;14.10;99.90
34837;DHT22;21053;50.848;4.652;2023-07-13T02:55:57;14.10;99.90
34837;DHT22;21053;50.848;4.652;2023-07-13T02:58:23;14.20;99.90
34837;DHT22;21053;50.848;4.652;2023-07-13T03:00:49;14.20;99.90
34837;DHT22;21053;50.848;4.652;2023-07-13T03:03:17;14.20;99.90
34837;DHT22;21053;50.848;4.652;2023-07-13T03:05:45;14.10;99.90
34837;DHT22;21053;50.848;4.652;2023-07-13T03:08:17;14.00;99.90
34837;DHT22;21053;50.848;4.652;2023-07-13T03:10:43;14.00;99.90
34837;DHT22;21053;50.848;4.652;2023-07-13T03:13:09;14.00;99.90
34837;DHT22;21053;50.848;4.652;2023-07-13T03:15:36;13.90;99.90
34837;DHT22;21053;50.848;4.652;2023-07-13T03:18:04;13.90;99.90
34837;DHT22;21053;50.848;4.652;2023-07-13T03:20:33;13.90;99.90
34837;DHT22;21053;50.848;4.652;2023-07-13T03:23:00;13.90;99.90
34837;DHT22;21053;50.848;4.652;2023-07-13T03:25:28;13.90;99.90
34837;DHT22;21053;50.848;4.652;2023-07-13T03:27:53;13.90;99.90
34837;DHT22;21053;50.848;4.652;2023-07-13T03:30:22;13.90;99.90
34837;DHT22;21053;50.848;4.652;2023-07-13T03:32:49;13.90;99.90
34837;DHT22;21053;50.848;4.652;2023-07-13T03:35:17;13.90;99.90
34837;DHT22;21053;50.848;4.652;2023-07-13T03:37:45;13.90;99.90
34837;DHT22;21053;50.848;4.652;2023-07-13T03:40:12;13.90;99.90
34837;DHT22;21053;50.848;4.652;2023-07-13T03:42:39;13.90;99.90
34837;DHT22;21053;50.848;4.652;2023-07-13T03:45:08;13.90;99.90
34837;DHT22;21053;50.848;4.652;2023-07-13T03:47:33;13.90;99.90
34837;DHT22;21053;50.848;4.652;2023-07-13T03:49:59;14.00;99.90
34837;DHT22;21053;50.848;4.652;2023-07-13T03:52:26;14.00;99.90
34837;DHT22;21053;50.848;4.652;2023-07-13T03:54:52;14.00;99.90
34837;DHT22;21053;50.848;4.652;2023-07-13T03:57:19;14.10;99.90
34837;DHT22;21053;50.848;4.652;2023-07-13T03:59:46;14.10;99.90
34837;DHT22;21053;50.848;4.652;2023-07-13T04:02:13;14.30;99.90
34837;DHT22;21053;50.848;4.652;2023-07-13T04:04:38;14.40;99.90
34837;DHT22;21053;50.848;4.652;2023-07-13T04:07:07;14.50;99.90
34837;DHT22;21053;50.848;4.652;2023-07-13T04:09:39;14.60;99.90
34837;DHT22;21053;50.848;4.652;2023-07-13T04:12:06;14.70;99.90
34837;DHT22;21053;50.848;4.652;2023-07-13T04:14:34;14.80;99.90
34837;DHT22;21053;50.848;4.652;2023-07-13T04:17:02;14.80;99.90
34837;DHT22;21053;50.848;4.652;2023-07-13T04:19:33;14.90;99.90
34837;DHT22;21053;50.848;4.652;2023-07-13T04:22:00;14.90;99.90
34837;DHT22;21053;50.848;4.652;2023-07-13T04:24:26;15.10;99.90
34837;DHT22;21053;50.848;4.652;2023-07-13T04:26:55;15.20;99.90
34837;DHT22;21053;50.848;4.652;2023-07-13T04:29:25;15.30;99.90
34837;DHT22;21053;50.848;4.652;2023-07-13T04:31:51;15.30;99.90
34837;DHT22;21053;50.848;4.652;2023-07-13T04:34:17;15.40;99.90
34837;DHT22;21053;50.848;4.652;2023-07-13T04:36:45;15.60;99.90
34837;DHT22;21053;50.848;4.652;2023-07-13T04:39:10;15.60;99.90
34837;DHT22;21053;50.848;4.652;2023-07-13T04:41:36;15.70;99.90
34837;DHT22;21053;50.848;4.652;2023-07-13T04:44:05;15.80;99.90
34837;DHT22;21053;50.848;4.652;2023-07-13T04:46:37;15.80;99.90
34837;DHT22;21053;50.848;4.652;2023-07-13T04:49:04;15.90;99.90
34837;DHT22;21053;50.848;4.652;2023-07-13T04:51:32;16.00;99.90
34837;DHT22;21053;50.848;4.652;2023-07-13T04:53:59;16.10;99.90
34837;DHT22;21053;50.848;4.652;2023-07-13T04:56:25;16.20;99.90
34837;DHT22;21053;50.848;4.652;2023-07-13T04:58:51;16.30;99.90
34837;DHT22;21053;50.848;4.652;2023-07-13T05:01:19;16.40;99.90
34837;DHT22;21053;50.848;4.652;2023-07-13T05:03:47;16.60;99.90
34837;DHT22;21053;50.848;4.652;2023-07-13T05:06:13;16.60;99.90
34837;DHT22;21053;50.848;4.652;2023-07-13T05:08:42;16.80;99.90
34837;DHT22;21053;50.848;4.652;2023-07-13T05:11:08;16.90;99.90
34837;DHT22;21053;50.848;4.652;2023-07-13T05:13:35;16.90;99.90
34837;DHT22;21053;50.848;4.652;2023-07-13T05:16:04;16.90;99.90
34837;DHT22;21053;50.848;4.652;2023-07-13T05:18:33;17.00;99.90
34837;DHT22;21053;50.848;4.652;2023-07-13T05:21:08;17.00;99.90
34837;DHT22;21053;50.848;4.652;2023-07-13T05:23:35;17.10;99.90
34837;DHT22;21053;50.848;4.652;2023-07-13T05:26:02;17.20;99.90
34837;DHT22;21053;50.848;4.652;2023-07-13T05:28:30;17.30;99.90
34837;DHT22;21053;50.848;4.652;2023-07-13T05:30:59;17.20;99.90
34837;DHT22;21053;50.848;4.652;2023-07-13T05:33:26;17.30;99.90
34837;DHT22;21053;50.848;4.652;2023-07-13T05:35:53;17.30;99.90
34837;DHT22;21053;50.848;4.652;2023-07-13T05:38:20;17.40;99.90
34837;DHT22;21053;50.848;4.652;2023-07-13T05:40:47;17.40;99.90
34837;DHT22;21053;50.848;4.652;2023-07-13T05:43:13;17.60;99.90
34837;DHT22;21053;50.848;4.652;2023-07-13T05:45:41;17.50;99.90
34837;DHT22;21053;50.848;4.652;2023-07-13T05:48:08;17.60;99.90
34837;DHT22;21053;50.848;4.652;2023-07-13T05:50:34;17.70;99.90
34837;DHT22;21053;50.848;4.652;2023-07-13T05:53:03;17.60;99.90
34837;DHT22;21053;50.848;4.652;2023-07-13T05:55:29;17.70;99.90
34837;DHT22;21053;50.848;4.652;2023-07-13T05:57:59;17.80;99.90
34837;DHT22;21053;50.848;4.652;2023-07-13T06:00:25;17.80;99.90
34837;DHT22;21053;50.848;4.652;2023-07-13T06:02:52;17.80;99.90
34837;DHT22;21053;50.848;4.652;2023-07-13T06:05:18;17.80;99.90
34837;DHT22;21053;50.848;4.652;2023-07-13T06:07:45;17.80;99.90
34837;DHT22;21053;50.848;4.652;2023-07-13T06:10:12;17.90;99.90
34837;DHT22;21053;50.848;4.652;2023-07-13T06:12:38;18.00;99.90
34837;DHT22;21053;50.848;4.652;2023-07-13T06:15:04;18.00;99.90
34837;DHT22;21053;50.848;4.652;2023-07-13T06:17:30;18.00;99.90
34837;DHT22;21053;50.848;4.652;2023-07-13T06:19:56;18.00;99.90
34837;DHT22;21053;50.848;4.652;2023-07-13T06:22:22;18.10;99.90
34837;DHT22;21053;50.848;4.652;2023-07-13T06:24:47;18.10;99.90
34837;DHT22;21053;50.848;4.652;2023-07-13T06:27:14;18.20;99.90
34837;DHT22;21053;50.848;4.652;2023-07-13T06:29:41;18.20;99.90
34837;DHT22;21053;50.848;4.652;2023-07-13T06:32:11;18.20;99.90
34837;DHT22;21053;50.848;4.652;2023-07-13T06:34:38;18.30;99.90
34837;DHT22;21053;50.848;4.652;2023-07-13T06:37:08;18.30;99.90
34837;DHT22;21053;50.848;4.652;2023-07-13T06:39:35;18.40;99.90
34837;DHT22;21053;50.848;4.652;2023-07-13T06:42:02;18.40;99.90
34837;DHT22;21053;50.848;4.652;2023-07-13T06:44:27;18.30;99.90
34837;DHT22;21053;50.848;4.652;2023-07-13T06:46:55;18.30;99.90
34837;DHT22;21053;50.848;4.652;2023-07-13T06:49:21;18.40;99.90
34837;DHT22;21053;50.848;4.652;2023-07-13T06:51:52;18.50;99.90
34837;DHT22;21053;50.848;4.652;2023-07-13T06:54:18;18.50;99.90
34837;DHT22;21053;50.848;4.652;2023-07-13T06:56:45;18.60;99.90
34837;DHT22;21053;50.848;4.652;2023-07-13T06:59:11;18.70;99.90
34837;DHT22;21053;50.848;4.652;2023-07-13T07:01:37;18.70;99.90
34837;DHT22;21053;50.848;4.652;2023-07-13T07:04:03;18.90;99.90
34837;DHT22;21053;50.848;4.652;2023-07-13T07:06:30;19.00;99.90
34837;DHT22;21053;50.848;4.652;2023-07-13T07:08:58;19.10;99.90
34837;DHT22;21053;50.848;4.652;2023-07-13T07:11:25;19.10;99.90
34837;DHT22;21053;50.848;4.652;2023-07-13T07:13:52;19.10;99.90
34837;DHT22;21053;50.848;4.652;2023-07-13T07:16:20;19.20;99.90
34837;DHT22;21053;50.848;4.652;2023-07-13T07:18:47;19.20;99.90
34837;DHT22;21053;50.848;4.652;2023-07-13T07:21:13;19.30;99.90
34837;DHT22;21053;50.848;4.652;2023-07-13T07:23:40;19.40;99.90
34837;DHT22;21053;50.848;4.652;2023-07-13T07:26:06;19.40;99.90
34837;DHT22;21053;50.848;4.652;2023-07-13T07:28:36;19.50;99.90
34837;DHT22;21053;50.848;4.652;2023-07-13T07:31:03;19.60;99.90
34837;DHT22;21053;50.848;4.652;2023-07-13T07:33:28;19.70;99.90
34837;DHT22;21053;50.848;4.652;2023-07-13T07:36:01;19.80;99.90
34837;DHT22;21053;50.848;4.652;2023-07-13T07:38:29;19.70;99.90
34837;DHT22;21053;50.848;4.652;2023-07-13T07:40:56;19.80;99.90
34837;DHT22;21053;50.848;4.652;2023-07-13T07:43:27;20.00;99.90
34837;DHT22;21053;50.848;4.652;2023-07-13T07:45:54;20.00;99.90
34837;DHT22;21053;50.848;4.652;2023-07-13T07:48:22;20.10;99.90
34837;DHT22;21053;50.848;4.652;2023-07-13T07:50:49;20.10;99.90
34837;DHT22;21053;50.848;4.652;2023-07-13T07:53:17;20.10;99.90
34837;DHT22;21053;50.848;4.652;2023-07-13T07:55:44;20.10;99.90
34837;DHT22;21053;50.848;4.652;2023-07-13T07:58:11;20.20;99.90
34837;DHT22;21053;50.848;4.652;2023-07-13T08:00:37;20.20;99.90
34837;DHT22;21053;50.848;4.652;2023-07-13T08:03:04;20.00;99.90
34837;DHT22;21053;50.848;4.652;2023-07-13T08:05:35;20.00;99.90
34837;DHT22;21053;50.848;4.652;2023-07-13T08:08:04;20.00;99.90
34837;DHT22;21053;50.848;4.652;2023-07-13T08:10:31;20.00;99.90
34837;DHT22;21053;50.848;4.652;2023-07-13T08:12:56;20.10;99.90
34837;DHT22;21053;50.848;4.652;2023-07-13T08:15:24;20.30;99.90
34837;DHT22;21053;50.848;4.652;2023-07-13T08:17:51;20.40;99.90
34837;DHT22;21053;50.848;4.652;2023-07-13T08:20:16;20.40;99.90
34837;DHT22;21053;50.848;4.652;2023-07-13T08:22:44;20.20;99.90
34837;DHT22;21053;50.848;4.652;2023-07-13T08:25:09;20.20;99.90
34837;DHT22;21053;50.848;4.652;2023-07-13T08:27:36;20.10;99.90
34837;DHT22;21053;50.848;4.652;2023-07-13T08:30:02;20.20;99.90
34837;DHT22;21053;50.848;4.652;2023-07-13T08:32:28;20.30;99.90
34837;DHT22;21053;50.848;4.652;2023-07-13T08:35:00;20.50;99.90
34837;DHT22;21053;50.848;4.652;2023-07-13T08:37:26;20.80;99.90
34837;DHT22;21053;50.848;4.652;2023-07-13T08:39:54;21.00;99.90
34837;DHT22;21053;50.848;4.652;2023-07-13T08:42:53;21.20;99.90
34837;DHT22;21053;50.848;4.652;2023-07-13T08:45:42;21.30;99.90
34837;DHT22;21053;50.848;4.652;2023-07-13T08:48:19;21.30;99.90
34837;DHT22;21053;50.848;4.652;2023-07-13T08:51:12;21.60;99.90
34837;DHT22;21053;50.848;4.652;2023-07-13T08:53:55;21.70;99.90
34837;DHT22;21053;50.848;4.652;2023-07-13T08:56:25;22.00;99.90
34837;DHT22;21053;50.848;4.652;2023-07-13T08:58:56;22.20;99.90
34837;DHT22;21053;50.848;4.652;2023-07-13T09:01:25;22.40;99.60
34837;DHT22;21053;50.848;4.652;2023-07-13T09:03:59;22.30;98.40
34837;DHT22;21053;50.848;4.652;2023-07-13T09:06:42;22.10;99.10
34837;DHT22;21053;50.848;4.652;2023-07-13T09:09:35;22.10;99.10
34837;DHT22;21053;50.848;4.652;2023-07-13T09:12:16;22.20;98.80
34837;DHT22;21053;50.848;4.652;2023-07-13T09:14:51;22.30;99.00
34837;DHT22;21053;50.848;4.652;2023-07-13T09:17:27;22.60;98.80
34837;DHT22;21053;50.848;4.652;2023-07-13T09:20:01;22.70;99.80
34837;DHT22;21053;50.848;4.652;2023-07-13T09:22:33;23.00;97.90
34837;DHT22;21053;50.848;4.652;2023-07-13T09:28:08;23.50;95.90
34837;DHT22;21053;50.848;4.652;2023-07-13T09:33:18;23.60;95.10
34837;DHT22;21053;50.848;4.652;2023-07-13T09:35:52;23.60;95.40
34837;DHT22;21053;50.848;4.652;2023-07-13T09:38:22;23.80;95.60
34837;DHT22;21053;50.848;4.652;2023-07-13T09:44:15;23.60;95.00
34837;DHT22;21053;50.848;4.652;2023-07-13T09:46:51;23.70;95.50
34837;DHT22;21053;50.848;4.652;2023-07-13T09:49:18;23.70;94.20
34837;DHT22;21053;50.848;4.652;2023-07-13T09:52:01;23.60;94.60
34837;DHT22;21053;50.848;4.652;2023-07-13T09:54:33;23.60;96.40
34837;DHT22;21053;50.848;4.652;2023-07-13T09:57:00;23.80;95.30
34837;DHT22;21053;50.848;4.652;2023-07-13T09:59:32;23.90;95.60
34837;DHT22;21053;50.848;4.652;2023-07-13T10:02:00;23.80;94.70
34837;DHT22;21053;50.848;4.652;2023-07-13T10:04:34;24.00;94.90
34837;DHT22;21053;50.848;4.652;2023-07-13T10:07:12;24.20;94.30
34837;DHT22;21053;50.848;4.652;2023-07-13T10:09:41;24.50;94.70
34837;DHT22;21053;50.848;4.652;2023-07-13T10:12:17;24.90;93.10
34837;DHT22;21053;50.848;4.652;2023-07-13T10:14:43;25.10;91.70
34837;DHT22;21053;50.848;4.652;2023-07-13T10:17:13;25.30;93.50
34837;DHT22;21053;50.848;4.652;2023-07-13T10:19:42;24.80;91.30
34837;DHT22;21053;50.848;4.652;2023-07-13T10:25:27;24.30;92.10
34837;DHT22;21053;50.848;4.652;2023-07-13T10:27:58;24.00;92.80
34837;DHT22;21053;50.848;4.652;2023-07-13T10:30:29;23.80;94.10
34837;DHT22;21053;50.848;4.652;2023-07-13T10:33:03;23.80;92.80
34837;DHT22;21053;50.848;4.652;2023-07-13T10:35:31;23.40;92.00
34837;DHT22;21053;50.848;4.652;2023-07-13T10:38:07;23.60;92.60
34837;DHT22;21053;50.848;4.652;2023-07-13T10:40:58;23.60;92.50
34837;DHT22;21053;50.848;4.652;2023-07-13T10:43:33;24.20;92.80
34837;DHT22;21053;50.848;4.652;2023-07-13T10:46:14;24.40;91.20
34837;DHT22;21053;50.848;4.652;2023-07-13T10:48:44;24.30;91.80
34837;DHT22;21053;50.848;4.652;2023-07-13T10:51:18;24.50;91.90
34837;DHT22;21053;50.848;4.652;2023-07-13T10:54:10;24.70;90.60
34837;DHT22;21053;50.848;4.652;2023-07-13T10:56:40;24.90;91.00
34837;DHT22;21053;50.848;4.652;2023-07-13T10:59:24;24.90;89.60
34837;DHT22;21053;50.848;4.652;2023-07-13T11:04:43;24.90;92.80
34837;DHT22;21053;50.848;4.652;2023-07-13T11:07:28;25.20;92.00
34837;DHT22;21053;50.848;4.652;2023-07-13T11:10:04;25.20;89.30
34837;DHT22;21053;50.848;4.652;2023-07-13T11:12:53;24.70;90.60
34837;DHT22;21053;50.848;4.652;2023-07-13T11:15:43;25.50;89.40
34837;DHT22;21053;50.848;4.652;2023-07-13T11:18:24;25.50;89.40
34837;DHT22;21053;50.848;4.652;2023-07-13T11:21:13;25.70;88.60
34837;DHT22;21053;50.848;4.652;2023-07-13T11:23:43;25.60;88.90
34837;DHT22;21053;50.848;4.652;2023-07-13T11:29:24;25.10;87.60
34837;DHT22;21053;50.848;4.652;2023-07-13T11:31:56;25.40;90.60
34837;DHT22;21053;50.848;4.652;2023-07-13T11:34:31;25.50;87.00
34837;DHT22;21053;50.848;4.652;2023-07-13T11:37:00;25.70;89.60
34837;DHT22;21053;50.848;4.652;2023-07-13T11:39:35;25.80;85.00
34837;DHT22;21053;50.848;4.652;2023-07-13T11:42:25;25.50;84.40
34837;DHT22;21053;50.848;4.652;2023-07-13T11:44:52;25.20;87.20
34837;DHT22;21053;50.848;4.652;2023-07-13T11:47:24;25.20;89.30
34837;DHT22;21053;50.848;4.652;2023-07-13T11:49:55;25.80;87.60
34837;DHT22;21053;50.848;4.652;2023-07-13T11:52:37;26.10;87.40
34837;DHT22;21053;50.848;4.652;2023-07-13T11:55:19;25.80;85.50
34837;DHT22;21053;50.848;4.652;2023-07-13T11:57:57;25.70;87.70
34837;DHT22;21053;50.848;4.652;2023-07-13T12:00:32;25.70;85.60
34837;DHT22;21053;50.848;4.652;2023-07-13T12:03:05;25.70;83.90
34837;DHT22;21053;50.848;4.652;2023-07-13T12:05:32;25.60;83.00
34837;DHT22;21053;50.848;4.652;2023-07-13T12:08:09;25.40;84.30
34837;DHT22;21053;50.848;4.652;2023-07-13T12:10:36;25.10;84.50
34837;DHT22;21053;50.848;4.652;2023-07-13T12:13:07;24.60;85.60
34837;DHT22;21053;50.848;4.652;2023-07-13T12:15:43;24.50;86.10
34837;DHT22;21053;50.848;4.652;2023-07-13T12:18:21;24.20;86.90
34837;DHT22;21053;50.848;4.652;2023-07-13T12:20:49;24.10;87.10
34837;DHT22;21053;50.848;4.652;2023-07-13T12:23:28;23.90;87.40
34837;DHT22;21053;50.848;4.652;2023-07-13T12:25:55;23.90;87.40
34837;DHT22;21053;50.848;4.652;2023-07-13T12:28:52;24.10;88.80
34837;DHT22;21053;50.848;4.652;2023-07-13T12:34:06;24.20;87.80
34837;DHT22;21053;50.848;4.652;2023-07-13T12:36:38;24.20;87.00
34837;DHT22;21053;50.848;4.652;2023-07-13T12:39:22;24.10;87.30
34837;DHT22;21053;50.848;4.652;2023-07-13T12:41:50;24.00;86.10
34837;DHT22;21053;50.848;4.652;2023-07-13T12:44:26;23.70;88.80
34837;DHT22;21053;50.848;4.652;2023-07-13T12:47:02;23.60;88.20
34837;DHT22;21053;50.848;4.652;2023-07-13T12:49:33;23.60;90.00
34837;DHT22;21053;50.848;4.652;2023-07-13T12:52:03;23.50;89.40
34837;DHT22;21053;50.848;4.652;2023-07-13T12:54:39;23.60;90.50
34837;DHT22;21053;50.848;4.652;2023-07-13T12:57:07;23.50;89.00
34837;DHT22;21053;50.848;4.652;2023-07-13T12:59:38;23.60;89.20
34837;DHT22;21053;50.848;4.652;2023-07-13T13:02:39;23.60;92.40
34837;DHT22;21053;50.848;4.652;2023-07-13T13:05:08;23.40;92.60
34837;DHT22;21053;50.848;4.652;2023-07-13T13:07:39;23.00;92.70
34837;DHT22;21053;50.848;4.652;2023-07-13T13:10:11;22.80;92.70
34837;DHT22;21053;50.848;4.652;2023-07-13T13:12:40;22.70;92.10
34837;DHT22;21053;50.848;4.652;2023-07-13T13:15:11;22.60;92.70
34837;DHT22;21053;50.848;4.652;2023-07-13T13:17:37;22.40;93.60
34837;DHT22;21053;50.848;4.652;2023-07-13T13:20:20;22.20;94.20
34837;DHT22;21053;50.848;4.652;2023-07-13T13:22:49;22.30;95.20
34837;DHT22;21053;50.848;4.652;2023-07-13T13:25:18;22.10;97.60
34837;DHT22;21053;50.848;4.652;2023-07-13T13:27:45;21.80;98.50
34837;DHT22;21053;50.848;4.652;2023-07-13T13:30:17;21.70;99.80
34837;DHT22;21053;50.848;4.652;2023-07-13T13:32:48;21.80;99.90
34837;DHT22;21053;50.848;4.652;2023-07-13T13:35:19;21.80;99.90
34837;DHT22;21053;50.848;4.652;2023-07-13T13:37:56;21.80;99.90
34837;DHT22;21053;50.848;4.652;2023-07-13T13:40:22;22.00;99.90
34837;DHT22;21053;50.848;4.652;2023-07-13T13:42:51;22.30;99.90
34837;DHT22;21053;50.848;4.652;2023-07-13T13:45:22;22.80;99.90
34837;DHT22;21053;50.848;4.652;2023-07-13T13:47:52;23.20;97.90
34837;DHT22;21053;50.848;4.652;2023-07-13T13:50:21;23.30;97.20
34837;DHT22;21053;50.848;4.652;2023-07-13T13:52:50;23.30;96.20
34837;DHT22;21053;50.848;4.652;2023-07-13T13:55:23;23.30;96.10
34837;DHT22;21053;50.848;4.652;2023-07-13T13:57:49;23.30;95.80
34837;DHT22;21053;50.848;4.652;2023-07-13T14:00:19;23.20;95.00
34837;DHT22;21053;50.848;4.652;2023-07-13T14:02:48;23.20;94.50
34837;DHT22;21053;50.848;4.652;2023-07-13T14:05:24;23.30;95.20
34837;DHT22;21053;50.848;4.652;2023-07-13T14:07:54;23.40;94.60
34837;DHT22;21053;50.848;4.652;2023-07-13T14:10:23;23.30;95.40
34837;DHT22;21053;50.848;4.652;2023-07-13T14:12:52;23.50;94.80
34837;DHT22;21053;50.848;4.652;2023-07-13T14:15:26;23.70;95.20
34837;DHT22;21053;50.848;4.652;2023-07-13T14:17:55;23.90;93.60
34837;DHT22;21053;50.848;4.652;2023-07-13T14:20:25;23.90;94.00
34837;DHT22;21053;50.848;4.652;2023-07-13T14:22:53;23.60;92.70
34837;DHT22;21053;50.848;4.652;2023-07-13T14:25:21;23.70;93.90
34837;DHT22;21053;50.848;4.652;2023-07-13T14:27:53;23.80;94.20
34837;DHT22;21053;50.848;4.652;2023-07-13T14:30:25;23.60;93.30
34837;DHT22;21053;50.848;4.652;2023-07-13T14:32:54;23.60;93.70
34837;DHT22;21053;50.848;4.652;2023-07-13T14:35:21;23.80;94.60
34837;DHT22;21053;50.848;4.652;2023-07-13T14:37:51;23.80;94.20
34837;DHT22;21053;50.848;4.652;2023-07-13T14:40:28;23.90;93.50
34837;DHT22;21053;50.848;4.652;2023-07-13T14:42:57;23.80;93.30
34837;DHT22;21053;50.848;4.652;2023-07-13T14:45:24;23.80;93.20
34837;DHT22;21053;50.848;4.652;2023-07-13T14:47:51;23.70;93.00
34837;DHT22;21053;50.848;4.652;2023-07-13T14:50:23;23.70;93.20
34837;DHT22;21053;50.848;4.652;2023-07-13T14:52:53;23.60;93.30
34837;DHT22;21053;50.848;4.652;2023-07-13T14:55:19;23.40;93.60
34837;DHT22;21053;50.848;4.652;2023-07-13T14:57:48;23.50;94.10
34837;DHT22;21053;50.848;4.652;2023-07-13T15:00:20;23.30;93.60
34837;DHT22;21053;50.848;4.652;2023-07-13T15:02:52;23.30;93.90
34837;DHT22;21053;50.848;4.652;2023-07-13T15:05:25;23.10;93.20
34837;DHT22;21053;50.848;4.652;2023-07-13T15:07:53;23.00;94.70
34837;DHT22;21053;50.848;4.652;2023-07-13T15:10:25;23.00;94.20
34837;DHT22;21053;50.848;4.652;2023-07-13T15:12:59;23.10;93.50
34837;DHT22;21053;50.848;4.652;2023-07-13T15:15:29;23.20;92.60
34837;DHT22;21053;50.848;4.652;2023-07-13T15:17:59;23.10;92.90
34837;DHT22;21053;50.848;4.652;2023-07-13T15:20:31;23.30;93.10
34837;DHT22;21053;50.848;4.652;2023-07-13T15:22:58;23.40;93.50
34837;DHT22;21053;50.848;4.652;2023-07-13T15:25:29;23.50;93.00
34837;DHT22;21053;50.848;4.652;2023-07-13T15:27:57;23.40;92.50
34837;DHT22;21053;50.848;4.652;2023-07-13T15:30:28;23.40;92.80
34837;DHT22;21053;50.848;4.652;2023-07-13T15:33:01;23.40;92.00
34837;DHT22;21053;50.848;4.652;2023-07-13T15:38:04;23.30;91.40
34837;DHT22;21053;50.848;4.652;2023-07-13T15:40:35;23.20;92.70
34837;DHT22;21053;50.848;4.652;2023-07-13T15:43:11;23.30;93.40
34837;DHT22;21053;50.848;4.652;2023-07-13T15:45:37;23.30;91.40
34837;DHT22;21053;50.848;4.652;2023-07-13T15:48:24;23.30;92.40
34837;DHT22;21053;50.848;4.652;2023-07-13T15:50:54;23.50;93.10
34837;DHT22;21053;50.848;4.652;2023-07-13T15:53:29;23.40;92.00
34837;DHT22;21053;50.848;4.652;2023-07-13T15:55:57;23.60;91.60
34837;DHT22;21053;50.848;4.652;2023-07-13T15:58:26;23.90;92.00
34837;DHT22;21053;50.848;4.652;2023-07-13T16:00:57;24.20;91.20
34837;DHT22;21053;50.848;4.652;2023-07-13T16:03:22;24.30;92.00
34837;DHT22;21053;50.848;4.652;2023-07-13T16:05:49;24.50;91.60
34837;DHT22;21053;50.848;4.652;2023-07-13T16:08:27;24.50;91.00
34837;DHT22;21053;50.848;4.652;2023-07-13T16:11:01;24.50;91.00
34837;DHT22;21053;50.848;4.652;2023-07-13T16:13:29;24.50;91.00